sensor_id;sensor_type;location;lat;lon;timestamp;P1;durP1;ratioP1;P2;durP2;ratioP2
36445;SDS011;22472;50.848;-1.216;2023-11-19T00:00:19;60.38;;;9.77;;
36445;SDS011;22472;50.848;-1.216;2023-11-19T00:02:46;65.07;;;9.13;;
36445;SDS011;22472;50.848;-1.216;2023-11-19T00:05:14;62.97;;;9.50;;
36445;SDS011;22472;50.848;-1.216;2023-11-19T00:07:41;60.58;;;8.95;;
36445;SDS011;22472;50.848;-1.216;2023-11-19T00:10:09;60.42;;;9.15;;
36445;SDS011;22472;50.848;-1.216;2023-11-19T00:12:37;53.47;;;8.65;;
36445;SDS011;22472;50.848;-1.216;2023-11-19T00:15:05;58.50;;;8.50;;
36445;SDS011;22472;50.848;-1.216;2023-11-19T00:17:36;54.80;;;8.82;;
36445;SDS011;22472;50.848;-1.216;2023-11-19T00:20:05;55.85;;;7.90;;
36445;SDS011;22472;50.848;-1.216;2023-11-19T00:22:34;56.50;;;9.05;;
36445;SDS011;22472;50.848;-1.216;2023-11-19T00:25:01;55.35;;;8.50;;
36445;SDS011;22472;50.848;-1.216;2023-11-19T00:27:28;59.53;;;8.65;;
36445;SDS011;22472;50.848;-1.216;2023-11-19T00:29:56;57.45;;;8.70;;
36445;SDS011;22472;50.848;-1.216;2023-11-19T00:32:23;56.85;;;9.48;;
36445;SDS011;22472;50.848;-1.216;2023-11-19T00:34:50;47.33;;;8.00;;
36445;SDS011;22472;50.848;-1.216;2023-11-19T00:37:18;62.92;;;8.88;;
36445;SDS011;22472;50.848;-1.216;2023-11-19T00:39:46;55.25;;;8.73;;
36445;SDS011;22472;50.848;-1.216;2023-11-19T00:42:14;59.20;;;9.02;;
36445;SDS011;22472;50.848;-1.216;2023-11-19T00:44:41;62.22;;;8.70;;
36445;SDS011;22472;50.848;-1.216;2023-11-19T00:47:08;54.58;;;9.18;;
36445;SDS011;22472;50.848;-1.216;2023-11-19T00:49:35;58.03;;;9.65;;
36445;SDS011;22472;50.848;-1.216;2023-11-19T00:52:03;68.25;;;9.25;;
36445;SDS011;22472;50.848;-1.216;2023-11-19T00:54:31;60.25;;;9.77;;
36445;SDS011;22472;50.848;-1.216;2023-11-19T00:57:00;59.15;;;8.65;;
36445;SDS011;22472;50.848;-1.216;2023-11-19T00:59:27;63.40;;;9.25;;
36445;SDS011;22472;50.848;-1.216;2023-11-19T01:01:55;61.03;;;8.77;;
36445;SDS011;22472;50.848;-1.216;2023-11-19T01:04:22;56.78;;;8.98;;
36445;SDS011;22472;50.848;-1.216;2023-11-19T01:06:49;70.20;;;9.02;;
36445;SDS011;22472;50.848;-1.216;2023-11-19T01:09:17;67.10;;;9.02;;
36445;SDS011;22472;50.848;-1.216;2023-11-19T01:11:44;56.42;;;9.23;;
36445;SDS011;22472;50.848;-1.216;2023-11-19T01:14:13;53.45;;;9.23;;
36445;SDS011;22472;50.848;-1.216;2023-11-19T01:16:40;53.55;;;7.97;;
36445;SDS011;22472;50.848;-1.216;2023-11-19T01:19:07;65.15;;;9.55;;
36445;SDS011;22472;50.848;-1.216;2023-11-19T01:21:36;61.38;;;9.45;;
36445;SDS011;22472;50.848;-1.216;2023-11-19T01:24:03;64.70;;;9.57;;
36445;SDS011;22472;50.848;-1.216;2023-11-19T01:26:34;66.72;;;10.02;;
36445;SDS011;22472;50.848;-1.216;2023-11-19T01:29:01;62.55;;;9.82;;
36445;SDS011;22472;50.848;-1.216;2023-11-19T01:31:31;65.80;;;10.57;;
36445;SDS011;22472;50.848;-1.216;2023-11-19T01:33:59;64.78;;;9.82;;
36445;SDS011;22472;50.848;-1.216;2023-11-19T01:36:26;58.60;;;8.20;;
36445;SDS011;22472;50.848;-1.216;2023-11-19T01:38:53;54.50;;;8.80;;
36445;SDS011;22472;50.848;-1.216;2023-11-19T01:41:20;58.35;;;9.60;;
36445;SDS011;22472;50.848;-1.216;2023-11-19T01:43:47;61.22;;;8.52;;
36445;SDS011;22472;50.848;-1.216;2023-11-19T01:46:15;53.42;;;8.73;;
36445;SDS011;22472;50.848;-1.216;2023-11-19T01:48:44;65.18;;;9.13;;
36445;SDS011;22472;50.848;-1.216;2023-11-19T01:51:12;71.78;;;9.48;;
36445;SDS011;22472;50.848;-1.216;2023-11-19T01:53:41;59.28;;;9.43;;
36445;SDS011;22472;50.848;-1.216;2023-11-19T01:56:09;64.28;;;9.60;;
36445;SDS011;22472;50.848;-1.216;2023-11-19T01:58:39;60.45;;;9.93;;
36445;SDS011;22472;50.848;-1.216;2023-11-19T02:01:07;63.38;;;9.98;;
36445;SDS011;22472;50.848;-1.216;2023-11-19T02:03:36;68.05;;;9.30;;
36445;SDS011;22472;50.848;-1.216;2023-11-19T02:06:06;53.03;;;8.65;;
36445;SDS011;22472;50.848;-1.216;2023-11-19T02:11:02;54.17;;;7.85;;
36445;SDS011;22472;50.848;-1.216;2023-11-19T02:13:29;54.17;;;8.82;;
36445;SDS011;22472;50.848;-1.216;2023-11-19T02:15:58;63.53;;;8.70;;
36445;SDS011;22472;50.848;-1.216;2023-11-19T02:18:27;59.78;;;8.73;;
36445;SDS011;22472;50.848;-1.216;2023-11-19T02:20:54;59.45;;;8.95;;
36445;SDS011;22472;50.848;-1.216;2023-11-19T02:23:23;57.28;;;7.93;;
36445;SDS011;22472;50.848;-1.216;2023-11-19T02:25:54;50.03;;;8.50;;
36445;SDS011;22472;50.848;-1.216;2023-11-19T02:28:25;56.78;;;8.25;;
36445;SDS011;22472;50.848;-1.216;2023-11-19T02:30:53;53.03;;;8.88;;
36445;SDS011;22472;50.848;-1.216;2023-11-19T02:33:20;52.60;;;8.80;;
36445;SDS011;22472;50.848;-1.216;2023-11-19T02:35:48;57.70;;;8.40;;
36445;SDS011;22472;50.848;-1.216;2023-11-19T02:38:16;59.60;;;8.88;;
36445;SDS011;22472;50.848;-1.216;2023-11-19T02:40:43;59.10;;;8.57;;
36445;SDS011;22472;50.848;-1.216;2023-11-19T02:43:10;59.25;;;9.10;;
36445;SDS011;22472;50.848;-1.216;2023-11-19T02:45:39;58.40;;;9.27;;
36445;SDS011;22472;50.848;-1.216;2023-11-19T02:48:07;54.08;;;8.45;;
36445;SDS011;22472;50.848;-1.216;2023-11-19T02:50:35;58.42;;;7.93;;
36445;SDS011;22472;50.848;-1.216;2023-11-19T02:53:03;59.80;;;8.85;;
36445;SDS011;22472;50.848;-1.216;2023-11-19T02:55:31;54.00;;;8.80;;
36445;SDS011;22472;50.848;-1.216;2023-11-19T02:58:03;56.13;;;8.65;;
36445;SDS011;22472;50.848;-1.216;2023-11-19T03:00:34;53.22;;;8.13;;
36445;SDS011;22472;50.848;-1.216;2023-11-19T03:03:09;51.38;;;8.27;;
36445;SDS011;22472;50.848;-1.216;2023-11-19T03:05:45;60.40;;;8.77;;
36445;SDS011;22472;50.848;-1.216;2023-11-19T03:08:13;63.28;;;9.52;;
36445;SDS011;22472;50.848;-1.216;2023-11-19T03:10:40;59.15;;;8.65;;
36445;SDS011;22472;50.848;-1.216;2023-11-19T03:13:10;54.97;;;8.63;;
36445;SDS011;22472;50.848;-1.216;2023-11-19T03:18:06;53.20;;;9.05;;
36445;SDS011;22472;50.848;-1.216;2023-11-19T03:20:34;61.35;;;9.48;;
36445;SDS011;22472;50.848;-1.216;2023-11-19T03:23:02;56.22;;;9.13;;
36445;SDS011;22472;50.848;-1.216;2023-11-19T03:25:29;60.47;;;9.15;;
36445;SDS011;22472;50.848;-1.216;2023-11-19T03:27:59;59.80;;;9.25;;
36445;SDS011;22472;50.848;-1.216;2023-11-19T03:30:27;60.15;;;9.60;;
36445;SDS011;22472;50.848;-1.216;2023-11-19T03:33:13;55.13;;;8.48;;
36445;SDS011;22472;50.848;-1.216;2023-11-19T03:35:42;62.40;;;8.30;;
36445;SDS011;22472;50.848;-1.216;2023-11-19T03:38:09;50.53;;;8.57;;
36445;SDS011;22472;50.848;-1.216;2023-11-19T03:40:36;58.80;;;8.65;;
36445;SDS011;22472;50.848;-1.216;2023-11-19T03:43:04;57.22;;;9.30;;
36445;SDS011;22472;50.848;-1.216;2023-11-19T03:45:31;60.72;;;8.70;;
36445;SDS011;22472;50.848;-1.216;2023-11-19T03:47:58;60.00;;;9.27;;
36445;SDS011;22472;50.848;-1.216;2023-11-19T03:50:26;54.30;;;7.85;;
36445;SDS011;22472;50.848;-1.216;2023-11-19T03:52:55;48.42;;;7.72;;
36445;SDS011;22472;50.848;-1.216;2023-11-19T03:55:22;49.00;;;8.10;;
36445;SDS011;22472;50.848;-1.216;2023-11-19T03:57:49;55.15;;;8.88;;
36445;SDS011;22472;50.848;-1.216;2023-11-19T04:00:17;45.03;;;8.48;;
36445;SDS011;22472;50.848;-1.216;2023-11-19T04:02:46;46.40;;;7.43;;
36445;SDS011;22472;50.848;-1.216;2023-11-19T04:05:13;47.38;;;8.10;;
36445;SDS011;22472;50.848;-1.216;2023-11-19T04:07:40;43.90;;;7.95;;
36445;SDS011;22472;50.848;-1.216;2023-11-19T04:10:09;49.22;;;7.70;;
36445;SDS011;22472;50.848;-1.216;2023-11-19T04:12:36;51.42;;;7.75;;
36445;SDS011;22472;50.848;-1.216;2023-11-19T04:15:04;38.72;;;6.90;;
36445;SDS011;22472;50.848;-1.216;2023-11-19T04:17:32;43.35;;;7.10;;
36445;SDS011;22472;50.848;-1.216;2023-11-19T04:19:59;48.63;;;7.82;;
36445;SDS011;22472;50.848;-1.216;2023-11-19T04:22:26;43.75;;;7.72;;
36445;SDS011;22472;50.848;-1.216;2023-11-19T04:24:54;53.17;;;8.32;;
36445;SDS011;22472;50.848;-1.216;2023-11-19T04:27:22;45.20;;;7.10;;
36445;SDS011;22472;50.848;-1.216;2023-11-19T04:29:50;55.95;;;7.88;;
36445;SDS011;22472;50.848;-1.216;2023-11-19T04:32:18;44.20;;;7.55;;
36445;SDS011;22472;50.848;-1.216;2023-11-19T04:34:46;36.63;;;6.55;;
36445;SDS011;22472;50.848;-1.216;2023-11-19T04:37:13;45.97;;;7.35;;
36445;SDS011;22472;50.848;-1.216;2023-11-19T04:39:40;45.83;;;7.10;;
36445;SDS011;22472;50.848;-1.216;2023-11-19T04:42:08;55.95;;;8.10;;
36445;SDS011;22472;50.848;-1.216;2023-11-19T04:44:36;57.17;;;8.02;;
36445;SDS011;22472;50.848;-1.216;2023-11-19T04:47:04;50.58;;;7.53;;
36445;SDS011;22472;50.848;-1.216;2023-11-19T04:49:31;51.75;;;7.35;;
36445;SDS011;22472;50.848;-1.216;2023-11-19T04:51:58;52.10;;;8.10;;
36445;SDS011;22472;50.848;-1.216;2023-11-19T04:54:25;49.03;;;7.80;;
36445;SDS011;22472;50.848;-1.216;2023-11-19T04:56:53;52.75;;;8.30;;
36445;SDS011;22472;50.848;-1.216;2023-11-19T04:59:20;56.75;;;8.15;;
36445;SDS011;22472;50.848;-1.216;2023-11-19T05:01:49;47.60;;;7.45;;
36445;SDS011;22472;50.848;-1.216;2023-11-19T05:04:17;56.70;;;8.93;;
36445;SDS011;22472;50.848;-1.216;2023-11-19T05:06:44;54.40;;;8.32;;
36445;SDS011;22472;50.848;-1.216;2023-11-19T05:09:12;52.65;;;8.60;;
36445;SDS011;22472;50.848;-1.216;2023-11-19T05:11:39;46.83;;;8.00;;
36445;SDS011;22472;50.848;-1.216;2023-11-19T05:14:06;51.17;;;8.48;;
36445;SDS011;22472;50.848;-1.216;2023-11-19T05:16:34;54.10;;;8.30;;
36445;SDS011;22472;50.848;-1.216;2023-11-19T05:19:03;53.30;;;8.68;;
36445;SDS011;22472;50.848;-1.216;2023-11-19T05:21:30;48.78;;;8.00;;
36445;SDS011;22472;50.848;-1.216;2023-11-19T05:23:57;52.97;;;8.57;;
36445;SDS011;22472;50.848;-1.216;2023-11-19T05:26:24;54.92;;;8.20;;
36445;SDS011;22472;50.848;-1.216;2023-11-19T05:28:52;51.97;;;8.52;;
36445;SDS011;22472;50.848;-1.216;2023-11-19T05:31:19;58.63;;;8.05;;
36445;SDS011;22472;50.848;-1.216;2023-11-19T05:33:46;55.28;;;7.97;;
36445;SDS011;22472;50.848;-1.216;2023-11-19T05:36:15;52.90;;;7.93;;
36445;SDS011;22472;50.848;-1.216;2023-11-19T05:38:42;52.67;;;8.35;;
36445;SDS011;22472;50.848;-1.216;2023-11-19T05:41:10;47.45;;;7.88;;
36445;SDS011;22472;50.848;-1.216;2023-11-19T05:43:38;54.22;;;8.48;;
36445;SDS011;22472;50.848;-1.216;2023-11-19T05:46:06;45.65;;;7.40;;
36445;SDS011;22472;50.848;-1.216;2023-11-19T05:48:34;61.58;;;9.05;;
36445;SDS011;22472;50.848;-1.216;2023-11-19T05:51:01;45.00;;;6.40;;
36445;SDS011;22472;50.848;-1.216;2023-11-19T05:53:30;37.50;;;5.40;;
36445;SDS011;22472;50.848;-1.216;2023-11-19T05:55:57;39.00;;;6.18;;
36445;SDS011;22472;50.848;-1.216;2023-11-19T05:58:28;38.10;;;5.13;;
36445;SDS011;22472;50.848;-1.216;2023-11-19T06:00:57;28.35;;;4.63;;
36445;SDS011;22472;50.848;-1.216;2023-11-19T06:03:26;34.30;;;5.32;;
36445;SDS011;22472;50.848;-1.216;2023-11-19T06:05:53;24.25;;;4.07;;
36445;SDS011;22472;50.848;-1.216;2023-11-19T06:08:20;32.10;;;4.53;;
36445;SDS011;22472;50.848;-1.216;2023-11-19T06:10:49;26.52;;;4.80;;
36445;SDS011;22472;50.848;-1.216;2023-11-19T06:13:16;32.58;;;5.15;;
36445;SDS011;22472;50.848;-1.216;2023-11-19T06:15:44;30.30;;;4.60;;
36445;SDS011;22472;50.848;-1.216;2023-11-19T06:18:12;35.92;;;5.05;;
36445;SDS011;22472;50.848;-1.216;2023-11-19T06:20:39;34.10;;;5.13;;
36445;SDS011;22472;50.848;-1.216;2023-11-19T06:23:07;32.30;;;5.25;;
36445;SDS011;22472;50.848;-1.216;2023-11-19T06:25:34;36.95;;;5.40;;
36445;SDS011;22472;50.848;-1.216;2023-11-19T06:28:03;31.52;;;5.03;;
36445;SDS011;22472;50.848;-1.216;2023-11-19T06:30:30;35.38;;;5.72;;
36445;SDS011;22472;50.848;-1.216;2023-11-19T06:32:58;50.10;;;6.68;;
36445;SDS011;22472;50.848;-1.216;2023-11-19T06:35:25;42.80;;;6.38;;
36445;SDS011;22472;50.848;-1.216;2023-11-19T06:37:54;39.58;;;6.30;;
36445;SDS011;22472;50.848;-1.216;2023-11-19T06:40:21;40.70;;;6.07;;
36445;SDS011;22472;50.848;-1.216;2023-11-19T06:42:48;48.78;;;7.30;;
36445;SDS011;22472;50.848;-1.216;2023-11-19T06:45:18;46.35;;;6.50;;
36445;SDS011;22472;50.848;-1.216;2023-11-19T06:47:46;46.65;;;7.32;;
36445;SDS011;22472;50.848;-1.216;2023-11-19T06:50:13;40.63;;;6.65;;
36445;SDS011;22472;50.848;-1.216;2023-11-19T06:52:41;38.72;;;6.78;;
36445;SDS011;22472;50.848;-1.216;2023-11-19T06:55:08;42.72;;;6.75;;
36445;SDS011;22472;50.848;-1.216;2023-11-19T06:57:35;44.97;;;7.43;;
36445;SDS011;22472;50.848;-1.216;2023-11-19T07:00:02;39.65;;;6.90;;
36445;SDS011;22472;50.848;-1.216;2023-11-19T07:02:32;47.15;;;7.15;;
36445;SDS011;22472;50.848;-1.216;2023-11-19T07:04:59;43.08;;;7.35;;
36445;SDS011;22472;50.848;-1.216;2023-11-19T07:07:26;45.20;;;6.55;;
36445;SDS011;22472;50.848;-1.216;2023-11-19T07:09:53;43.25;;;6.30;;
36445;SDS011;22472;50.848;-1.216;2023-11-19T07:12:21;36.42;;;6.68;;
36445;SDS011;22472;50.848;-1.216;2023-11-19T07:14:48;38.58;;;6.47;;
36445;SDS011;22472;50.848;-1.216;2023-11-19T07:17:15;45.22;;;6.90;;
36445;SDS011;22472;50.848;-1.216;2023-11-19T07:19:44;39.28;;;6.22;;
36445;SDS011;22472;50.848;-1.216;2023-11-19T07:22:11;39.05;;;6.50;;
36445;SDS011;22472;50.848;-1.216;2023-11-19T07:24:39;43.95;;;6.72;;
36445;SDS011;22472;50.848;-1.216;2023-11-19T07:27:06;36.85;;;6.30;;
36445;SDS011;22472;50.848;-1.216;2023-11-19T07:29:34;37.47;;;6.00;;
36445;SDS011;22472;50.848;-1.216;2023-11-19T07:32:01;38.92;;;6.38;;
36445;SDS011;22472;50.848;-1.216;2023-11-19T07:34:30;41.22;;;6.55;;
36445;SDS011;22472;50.848;-1.216;2023-11-19T07:36:58;40.20;;;6.38;;
36445;SDS011;22472;50.848;-1.216;2023-11-19T07:39:27;41.88;;;6.55;;
36445;SDS011;22472;50.848;-1.216;2023-11-19T07:41:54;45.10;;;7.05;;
36445;SDS011;22472;50.848;-1.216;2023-11-19T07:44:22;46.55;;;6.78;;
36445;SDS011;22472;50.848;-1.216;2023-11-19T07:46:49;39.10;;;6.55;;
36445;SDS011;22472;50.848;-1.216;2023-11-19T07:49:17;42.47;;;6.60;;
36445;SDS011;22472;50.848;-1.216;2023-11-19T07:51:44;40.22;;;7.07;;
36445;SDS011;22472;50.848;-1.216;2023-11-19T07:54:13;39.50;;;6.43;;
36445;SDS011;22472;50.848;-1.216;2023-11-19T07:56:40;37.28;;;6.55;;
36445;SDS011;22472;50.848;-1.216;2023-11-19T07:59:07;39.97;;;6.30;;
36445;SDS011;22472;50.848;-1.216;2023-11-19T08:01:34;43.28;;;7.05;;
36445;SDS011;22472;50.848;-1.216;2023-11-19T08:04:01;45.50;;;7.03;;
36445;SDS011;22472;50.848;-1.216;2023-11-19T08:06:29;51.58;;;7.78;;
36445;SDS011;22472;50.848;-1.216;2023-11-19T08:08:56;47.95;;;7.22;;
36445;SDS011;22472;50.848;-1.216;2023-11-19T08:11:25;43.90;;;6.88;;
36445;SDS011;22472;50.848;-1.216;2023-11-19T08:13:53;41.03;;;6.82;;
36445;SDS011;22472;50.848;-1.216;2023-11-19T08:16:20;37.15;;;6.65;;
36445;SDS011;22472;50.848;-1.216;2023-11-19T08:18:47;43.83;;;6.93;;
36445;SDS011;22472;50.848;-1.216;2023-11-19T08:21:15;40.45;;;6.65;;
36445;SDS011;22472;50.848;-1.216;2023-11-19T08:23:42;43.72;;;6.35;;
36445;SDS011;22472;50.848;-1.216;2023-11-19T08:26:09;45.17;;;6.80;;
36445;SDS011;22472;50.848;-1.216;2023-11-19T08:28:38;38.78;;;6.53;;
36445;SDS011;22472;50.848;-1.216;2023-11-19T08:31:05;41.25;;;6.47;;
36445;SDS011;22472;50.848;-1.216;2023-11-19T08:33:33;41.78;;;6.90;;
36445;SDS011;22472;50.848;-1.216;2023-11-19T08:36:00;35.00;;;6.38;;
36445;SDS011;22472;50.848;-1.216;2023-11-19T08:38:29;35.45;;;5.97;;
36445;SDS011;22472;50.848;-1.216;2023-11-19T08:40:56;40.38;;;5.90;;
36445;SDS011;22472;50.848;-1.216;2023-11-19T08:43:25;39.63;;;6.05;;
36445;SDS011;22472;50.848;-1.216;2023-11-19T08:45:53;30.33;;;5.47;;
36445;SDS011;22472;50.848;-1.216;2023-11-19T08:48:20;45.17;;;6.40;;
36445;SDS011;22472;50.848;-1.216;2023-11-19T08:50:48;38.22;;;6.15;;
36445;SDS011;22472;50.848;-1.216;2023-11-19T08:53:15;32.83;;;5.80;;
36445;SDS011;22472;50.848;-1.216;2023-11-19T08:55:42;28.67;;;5.20;;
36445;SDS011;22472;50.848;-1.216;2023-11-19T08:58:10;33.13;;;4.88;;
36445;SDS011;22472;50.848;-1.216;2023-11-19T09:00:37;28.27;;;5.20;;
36445;SDS011;22472;50.848;-1.216;2023-11-19T09:03:06;31.38;;;5.60;;
36445;SDS011;22472;50.848;-1.216;2023-11-19T09:05:34;32.33;;;4.77;;
36445;SDS011;22472;50.848;-1.216;2023-11-19T09:08:02;29.42;;;4.82;;
36445;SDS011;22472;50.848;-1.216;2023-11-19T09:10:29;31.45;;;4.85;;
36445;SDS011;22472;50.848;-1.216;2023-11-19T09:12:56;30.38;;;4.70;;
36445;SDS011;22472;50.848;-1.216;2023-11-19T09:15:23;28.15;;;5.28;;
36445;SDS011;22472;50.848;-1.216;2023-11-19T09:17:51;32.25;;;5.32;;
36445;SDS011;22472;50.848;-1.216;2023-11-19T09:20:19;32.25;;;4.97;;
36445;SDS011;22472;50.848;-1.216;2023-11-19T09:22:47;34.05;;;5.88;;
36445;SDS011;22472;50.848;-1.216;2023-11-19T09:25:14;39.20;;;5.72;;
36445;SDS011;22472;50.848;-1.216;2023-11-19T09:27:42;35.20;;;5.65;;
36445;SDS011;22472;50.848;-1.216;2023-11-19T09:30:10;40.50;;;6.53;;
36445;SDS011;22472;50.848;-1.216;2023-11-19T09:32:38;35.88;;;6.28;;
36445;SDS011;22472;50.848;-1.216;2023-11-19T09:35:05;38.15;;;6.63;;
36445;SDS011;22472;50.848;-1.216;2023-11-19T09:37:34;36.65;;;5.82;;
36445;SDS011;22472;50.848;-1.216;2023-11-19T09:40:01;34.58;;;5.72;;
36445;SDS011;22472;50.848;-1.216;2023-11-19T09:42:28;38.40;;;6.30;;
36445;SDS011;22472;50.848;-1.216;2023-11-19T09:44:56;32.58;;;5.70;;
36445;SDS011;22472;50.848;-1.216;2023-11-19T09:47:25;34.28;;;6.13;;
36445;SDS011;22472;50.848;-1.216;2023-11-19T09:49:52;31.35;;;5.07;;
36445;SDS011;22472;50.848;-1.216;2023-11-19T09:52:19;35.85;;;6.00;;
36445;SDS011;22472;50.848;-1.216;2023-11-19T09:54:48;35.28;;;5.90;;
36445;SDS011;22472;50.848;-1.216;2023-11-19T09:57:15;33.63;;;5.10;;
36445;SDS011;22472;50.848;-1.216;2023-11-19T09:59:43;34.75;;;5.55;;
36445;SDS011;22472;50.848;-1.216;2023-11-19T10:02:11;34.83;;;5.88;;
36445;SDS011;22472;50.848;-1.216;2023-11-19T10:04:39;32.80;;;5.85;;
36445;SDS011;22472;50.848;-1.216;2023-11-19T10:07:06;30.25;;;5.78;;
36445;SDS011;22472;50.848;-1.216;2023-11-19T10:09:34;38.65;;;5.78;;
36445;SDS011;22472;50.848;-1.216;2023-11-19T10:12:03;34.95;;;6.45;;
36445;SDS011;22472;50.848;-1.216;2023-11-19T10:14:30;35.60;;;6.22;;
36445;SDS011;22472;50.848;-1.216;2023-11-19T10:16:58;34.30;;;5.68;;
36445;SDS011;22472;50.848;-1.216;2023-11-19T10:19:29;43.58;;;7.03;;
36445;SDS011;22472;50.848;-1.216;2023-11-19T10:21:56;38.92;;;6.63;;
36445;SDS011;22472;50.848;-1.216;2023-11-19T10:24:31;33.72;;;6.28;;
36445;SDS011;22472;50.848;-1.216;2023-11-19T10:26:59;38.70;;;7.00;;
36445;SDS011;22472;50.848;-1.216;2023-11-19T10:29:30;41.08;;;7.00;;
36445;SDS011;22472;50.848;-1.216;2023-11-19T10:31:57;30.73;;;5.97;;
36445;SDS011;22472;50.848;-1.216;2023-11-19T10:34:25;36.10;;;6.18;;
36445;SDS011;22472;50.848;-1.216;2023-11-19T10:36:52;38.75;;;5.75;;
36445;SDS011;22472;50.848;-1.216;2023-11-19T10:39:20;34.63;;;5.85;;
36445;SDS011;22472;50.848;-1.216;2023-11-19T10:41:49;41.67;;;7.10;;
36445;SDS011;22472;50.848;-1.216;2023-11-19T10:47:02;38.38;;;6.72;;
36445;SDS011;22472;50.848;-1.216;2023-11-19T10:49:32;41.13;;;6.82;;
36445;SDS011;22472;50.848;-1.216;2023-11-19T10:52:00;41.55;;;6.90;;
36445;SDS011;22472;50.848;-1.216;2023-11-19T10:54:28;39.30;;;6.35;;
36445;SDS011;22472;50.848;-1.216;2023-11-19T10:56:58;35.03;;;5.93;;
36445;SDS011;22472;50.848;-1.216;2023-11-19T10:59:26;36.20;;;6.10;;
36445;SDS011;22472;50.848;-1.216;2023-11-19T11:01:55;37.38;;;6.30;;
36445;SDS011;22472;50.848;-1.216;2023-11-19T11:04:24;35.63;;;6.57;;
36445;SDS011;22472;50.848;-1.216;2023-11-19T11:06:53;38.22;;;6.20;;
36445;SDS011;22472;50.848;-1.216;2023-11-19T11:09:21;32.83;;;5.22;;
36445;SDS011;22472;50.848;-1.216;2023-11-19T11:11:48;41.40;;;6.30;;
36445;SDS011;22472;50.848;-1.216;2023-11-19T11:14:16;37.65;;;6.32;;
36445;SDS011;22472;50.848;-1.216;2023-11-19T11:16:45;37.00;;;6.55;;
36445;SDS011;22472;50.848;-1.216;2023-11-19T11:19:13;41.00;;;6.90;;
36445;SDS011;22472;50.848;-1.216;2023-11-19T11:21:43;40.00;;;7.00;;
36445;SDS011;22472;50.848;-1.216;2023-11-19T11:24:28;38.55;;;6.47;;
36445;SDS011;22472;50.848;-1.216;2023-11-19T11:27:04;36.78;;;6.43;;
36445;SDS011;22472;50.848;-1.216;2023-11-19T11:29:37;37.92;;;6.40;;
36445;SDS011;22472;50.848;-1.216;2023-11-19T11:32:10;34.47;;;6.13;;
36445;SDS011;22472;50.848;-1.216;2023-11-19T11:34:50;37.25;;;6.30;;
36445;SDS011;22472;50.848;-1.216;2023-11-19T11:37:24;30.73;;;5.60;;
36445;SDS011;22472;50.848;-1.216;2023-11-19T11:39:52;32.83;;;5.60;;
36445;SDS011;22472;50.848;-1.216;2023-11-19T11:42:36;36.92;;;6.25;;
36445;SDS011;22472;50.848;-1.216;2023-11-19T11:45:04;32.08;;;5.10;;
36445;SDS011;22472;50.848;-1.216;2023-11-19T11:50:05;35.47;;;5.75;;
36445;SDS011;22472;50.848;-1.216;2023-11-19T11:52:36;34.58;;;6.30;;
36445;SDS011;22472;50.848;-1.216;2023-11-19T11:55:23;39.05;;;5.75;;
36445;SDS011;22472;50.848;-1.216;2023-11-19T11:57:50;43.08;;;7.30;;
36445;SDS011;22472;50.848;-1.216;2023-11-19T12:00:21;40.67;;;6.15;;
36445;SDS011;22472;50.848;-1.216;2023-11-19T12:02:49;35.88;;;5.53;;
36445;SDS011;22472;50.848;-1.216;2023-11-19T12:05:16;28.52;;;5.05;;
36445;SDS011;22472;50.848;-1.216;2023-11-19T12:07:47;25.88;;;4.50;;
36445;SDS011;22472;50.848;-1.216;2023-11-19T12:10:23;26.73;;;4.40;;
36445;SDS011;22472;50.848;-1.216;2023-11-19T12:12:52;33.55;;;4.82;;
36445;SDS011;22472;50.848;-1.216;2023-11-19T12:15:19;37.33;;;6.18;;
36445;SDS011;22472;50.848;-1.216;2023-11-19T12:17:50;34.08;;;5.93;;
36445;SDS011;22472;50.848;-1.216;2023-11-19T12:20:17;31.40;;;5.95;;
36445;SDS011;22472;50.848;-1.216;2023-11-19T12:22:47;45.40;;;5.78;;
36445;SDS011;22472;50.848;-1.216;2023-11-19T12:25:19;31.83;;;5.40;;
36445;SDS011;22472;50.848;-1.216;2023-11-19T12:27:47;30.48;;;5.38;;
36445;SDS011;22472;50.848;-1.216;2023-11-19T12:30:17;30.00;;;4.85;;
36445;SDS011;22472;50.848;-1.216;2023-11-19T12:32:45;30.17;;;4.53;;
36445;SDS011;22472;50.848;-1.216;2023-11-19T12:35:13;22.58;;;3.15;;
36445;SDS011;22472;50.848;-1.216;2023-11-19T12:37:43;24.40;;;3.97;;
36445;SDS011;22472;50.848;-1.216;2023-11-19T12:42:39;18.10;;;3.22;;
36445;SDS011;22472;50.848;-1.216;2023-11-19T12:45:06;17.33;;;2.97;;
36445;SDS011;22472;50.848;-1.216;2023-11-19T12:47:35;18.05;;;2.90;;
36445;SDS011;22472;50.848;-1.216;2023-11-19T12:50:03;17.40;;;3.30;;
36445;SDS011;22472;50.848;-1.216;2023-11-19T12:52:32;23.17;;;4.63;;
36445;SDS011;22472;50.848;-1.216;2023-11-19T12:54:59;19.73;;;3.25;;
36445;SDS011;22472;50.848;-1.216;2023-11-19T13:00:19;25.73;;;4.30;;
36445;SDS011;22472;50.848;-1.216;2023-11-19T13:02:47;25.35;;;4.32;;
36445;SDS011;22472;50.848;-1.216;2023-11-19T13:05:24;28.65;;;5.13;;
36445;SDS011;22472;50.848;-1.216;2023-11-19T13:07:58;30.02;;;5.10;;
36445;SDS011;22472;50.848;-1.216;2023-11-19T13:10:25;33.50;;;5.03;;
36445;SDS011;22472;50.848;-1.216;2023-11-19T13:13:02;30.13;;;5.05;;
36445;SDS011;22472;50.848;-1.216;2023-11-19T13:15:31;32.35;;;6.05;;
36445;SDS011;22472;50.848;-1.216;2023-11-19T13:17:58;27.23;;;5.15;;
36445;SDS011;22472;50.848;-1.216;2023-11-19T13:20:26;27.98;;;4.93;;
36445;SDS011;22472;50.848;-1.216;2023-11-19T13:22:54;29.55;;;4.90;;
36445;SDS011;22472;50.848;-1.216;2023-11-19T13:25:21;30.58;;;5.60;;
36445;SDS011;22472;50.848;-1.216;2023-11-19T13:27:48;29.17;;;4.55;;
36445;SDS011;22472;50.848;-1.216;2023-11-19T13:30:16;33.78;;;5.07;;
36445;SDS011;22472;50.848;-1.216;2023-11-19T13:32:45;26.30;;;4.78;;
36445;SDS011;22472;50.848;-1.216;2023-11-19T13:35:12;28.60;;;5.15;;
36445;SDS011;22472;50.848;-1.216;2023-11-19T13:37:39;33.17;;;5.18;;
36445;SDS011;22472;50.848;-1.216;2023-11-19T13:40:07;28.45;;;4.88;;
36445;SDS011;22472;50.848;-1.216;2023-11-19T13:42:37;26.55;;;4.63;;
36445;SDS011;22472;50.848;-1.216;2023-11-19T13:45:06;28.35;;;4.85;;
36445;SDS011;22472;50.848;-1.216;2023-11-19T13:47:36;26.90;;;4.68;;
36445;SDS011;22472;50.848;-1.216;2023-11-19T13:50:07;26.95;;;4.95;;
36445;SDS011;22472;50.848;-1.216;2023-11-19T13:52:35;23.73;;;4.13;;
36445;SDS011;22472;50.848;-1.216;2023-11-19T13:55:04;27.23;;;4.53;;
36445;SDS011;22472;50.848;-1.216;2023-11-19T13:57:32;25.10;;;4.45;;
36445;SDS011;22472;50.848;-1.216;2023-11-19T13:59:59;27.00;;;4.40;;
36445;SDS011;22472;50.848;-1.216;2023-11-19T14:02:28;25.33;;;4.65;;
36445;SDS011;22472;50.848;-1.216;2023-11-19T14:04:56;28.63;;;4.75;;
36445;SDS011;22472;50.848;-1.216;2023-11-19T14:07:25;32.45;;;4.20;;
36445;SDS011;22472;50.848;-1.216;2023-11-19T14:09:52;27.00;;;4.28;;
36445;SDS011;22472;50.848;-1.216;2023-11-19T14:12:20;22.92;;;4.05;;
36445;SDS011;22472;50.848;-1.216;2023-11-19T14:14:47;21.73;;;3.95;;
36445;SDS011;22472;50.848;-1.216;2023-11-19T14:17:14;27.52;;;4.47;;
36445;SDS011;22472;50.848;-1.216;2023-11-19T14:19:42;25.95;;;4.57;;
36445;SDS011;22472;50.848;-1.216;2023-11-19T14:22:09;24.50;;;4.65;;
36445;SDS011;22472;50.848;-1.216;2023-11-19T14:24:37;27.08;;;4.68;;
36445;SDS011;22472;50.848;-1.216;2023-11-19T14:27:07;28.75;;;4.93;;
36445;SDS011;22472;50.848;-1.216;2023-11-19T14:29:34;25.85;;;4.60;;
36445;SDS011;22472;50.848;-1.216;2023-11-19T14:32:01;27.73;;;4.53;;
36445;SDS011;22472;50.848;-1.216;2023-11-19T14:34:28;29.30;;;4.32;;
36445;SDS011;22472;50.848;-1.216;2023-11-19T14:36:55;27.30;;;4.60;;
36445;SDS011;22472;50.848;-1.216;2023-11-19T14:39:23;24.20;;;3.80;;
36445;SDS011;22472;50.848;-1.216;2023-11-19T14:41:52;24.15;;;3.85;;